createdAt,value
2019-04-26T00:01:33.108Z,10.48
2019-04-26T00:04:05.225Z,10.41
2019-04-26T00:06:36.877Z,10.27
2019-04-26T00:09:19.115Z,10.18
2019-04-26T00:11:52.368Z,10.12
2019-04-26T00:14:32.021Z,10.09
2019-04-26T00:17:22.359Z,10.07
2019-04-26T00:19:54.542Z,10.00
2019-04-26T00:22:26.683Z,9.95
2019-04-26T00:24:58.440Z,9.88
2019-04-26T00:27:30.308Z,9.80
2019-04-26T00:30:02.058Z,9.75
2019-04-26T00:32:34.933Z,9.65
2019-04-26T00:35:07.767Z,9.52
2019-04-26T00:37:39.703Z,9.35
2019-04-26T00:40:12.891Z,9.35
2019-04-26T00:42:46.390Z,9.42
2019-04-26T00:45:21.073Z,9.36
2019-04-26T00:47:52.995Z,9.35
2019-04-26T00:50:24.771Z,9.28
2019-04-26T00:52:56.645Z,9.26
2019-04-26T00:55:30.584Z,9.24
2019-04-26T00:58:03.757Z,9.20
2019-04-26T01:00:35.624Z,9.18
2019-04-26T01:03:07.461Z,9.13
2019-04-26T01:05:40.794Z,9.18
2019-04-26T01:08:12.833Z,9.18
2019-04-26T01:10:44.526Z,9.34
2019-04-26T01:13:16.449Z,9.25
2019-04-26T01:15:49.542Z,9.25
2019-04-26T01:18:22.283Z,9.22
2019-04-26T01:20:56.660Z,9.14
2019-04-26T01:23:30.326Z,9.14
2019-04-26T01:26:11.044Z,9.09
2019-04-26T01:28:48.511Z,9.07
2019-04-26T01:31:20.328Z,9.09
2019-04-26T01:33:52.705Z,9.13
2019-04-26T01:36:26.526Z,9.40
2019-04-26T01:39:01.728Z,9.46
2019-04-26T01:41:44.856Z,9.30
2019-04-26T01:44:24.728Z,9.10
2019-04-26T01:46:57.574Z,8.88
2019-04-26T01:49:29.415Z,8.79
2019-04-26T01:52:13.340Z,8.82
2019-04-26T01:54:46.739Z,8.78
2019-04-26T01:57:19.357Z,8.69
2019-04-26T01:59:55.510Z,8.66
2019-04-26T02:02:29.787Z,8.64
2019-04-26T02:05:06.620Z,8.65
2019-04-26T02:07:38.764Z,8.67
2019-04-26T02:10:16.091Z,8.67
2019-04-26T02:12:49.368Z,8.65
2019-04-26T02:15:24.486Z,8.62
2019-04-26T02:17:59.795Z,8.62
2019-04-26T02:21:09.583Z,8.59
2019-04-26T02:23:52.259Z,8.59
2019-04-26T02:26:40.746Z,8.61
2019-04-26T02:29:18.446Z,8.64
2019-04-26T02:31:56.008Z,8.65
2019-04-26T02:34:31.862Z,8.65
2019-04-26T02:37:08.033Z,8.70
2019-04-26T02:39:43.244Z,8.69
2019-04-26T02:42:28.693Z,8.73
2019-04-26T02:45:21.565Z,8.79
2019-04-26T02:47:56.892Z,9.09
2019-04-26T02:50:39.289Z,9.09
2019-04-26T02:53:45.655Z,9.36
2019-04-26T02:56:31.609Z,9.36
2019-04-26T02:59:11.633Z,9.43
2019-04-26T03:02:05.572Z,9.48
2019-04-26T03:04:47.103Z,9.66
2019-04-26T03:07:35.873Z,9.66
2019-04-26T03:10:10.426Z,9.82
2019-04-26T03:12:46.169Z,9.97
2019-04-26T03:15:22.463Z,10.05
2019-04-26T03:18:01.623Z,10.07
2019-04-26T03:20:40.099Z,10.11
2019-04-26T03:23:19.232Z,10.11
2019-04-26T03:26:02.124Z,10.08
2019-04-26T03:28:37.619Z,10.10
2019-04-26T03:31:16.742Z,10.19
2019-04-26T03:34:10.141Z,10.23
2019-04-26T03:37:20.253Z,10.33
2019-04-26T03:39:57.275Z,10.45
2019-04-26T03:42:44.675Z,10.56
2019-04-26T03:45:25.109Z,10.63
2019-04-26T03:48:25.238Z,10.69
2019-04-26T03:51:15.174Z,10.73
2019-04-26T03:53:55.806Z,10.80
2019-04-26T03:56:42.367Z,10.93
2019-04-26T03:59:26.113Z,11.18
2019-04-26T04:02:08.443Z,11.50
2019-04-26T04:04:48.351Z,11.92
2019-04-26T04:07:37.195Z,12.32
2019-04-26T04:10:07.367Z,12.68
2019-04-26T04:12:51.002Z,13.12
2019-04-26T04:15:50.481Z,13.68
2019-04-26T04:18:30.900Z,14.27
2019-04-26T04:21:37.478Z,14.85
2019-04-26T04:24:14.957Z,15.27
2019-04-26T04:26:54.782Z,15.82
2019-04-26T04:29:43.047Z,16.26
2019-04-26T04:32:43.786Z,16.81
2019-04-26T04:35:20.509Z,17.00
2019-04-26T04:38:21.633Z,17.24
2019-04-26T04:41:13.876Z,17.41
2019-04-26T04:44:00.183Z,17.63
2019-04-26T04:46:47.458Z,18.27
2019-04-26T04:49:52.796Z,18.71
2019-04-26T04:52:35.338Z,19.27
2019-04-26T04:55:20.330Z,19.96
2019-04-26T04:58:17.683Z,20.55
2019-04-26T05:01:25.829Z,21.15
2019-04-26T05:04:14.194Z,21.79
2019-04-26T05:07:19.146Z,22.34
2019-04-26T05:10:02.122Z,22.93
2019-04-26T05:12:58.000Z,23.48
2019-04-26T05:15:52.729Z,23.81
2019-04-26T05:18:33.474Z,24.11
2019-04-26T05:21:08.198Z,24.31
2019-04-26T05:23:48.995Z,24.55
2019-04-26T05:26:37.096Z,24.73
2019-04-26T05:29:25.723Z,25.01
2019-04-26T05:32:03.274Z,25.23
2019-04-26T05:34:41.890Z,25.35
2019-04-26T05:37:53.061Z,25.45
2019-04-26T05:40:45.830Z,25.60
2019-04-26T05:43:41.546Z,25.74
2019-04-26T05:46:37.267Z,25.75
2019-04-26T05:49:55.864Z,25.75
2019-04-26T05:52:32.094Z,26.03
2019-04-26T05:55:30.644Z,26.24
2019-04-26T05:58:26.127Z,26.42
2019-04-26T06:01:20.331Z,26.52
2019-04-26T06:04:21.631Z,26.62
2019-04-26T06:07:29.648Z,26.37
2019-04-26T06:10:33.029Z,26.07
2019-04-26T06:13:11.806Z,26.02
2019-04-26T06:16:00.275Z,26.25
2019-04-26T06:18:49.340Z,26.43
2019-04-26T06:21:43.475Z,25.71
2019-04-26T06:24:27.927Z,26.05
2019-04-26T06:27:27.985Z,26.21
2019-04-26T06:30:19.818Z,26.46
2019-04-26T06:33:15.168Z,27.09
2019-04-26T06:35:50.300Z,27.39
2019-04-26T06:38:43.798Z,27.64
2019-04-26T06:41:23.000Z,27.92
2019-04-26T06:44:12.661Z,27.92
2019-04-26T06:47:12.738Z,28.04
2019-04-26T06:49:52.848Z,28.72
2019-04-26T06:52:27.593Z,29.01
2019-04-26T06:55:09.674Z,29.73
2019-04-26T06:58:16.373Z,30.08
2019-04-26T07:01:21.053Z,29.61
2019-04-26T07:04:04.336Z,28.60
2019-04-26T07:07:00.924Z,27.88
2019-04-26T07:10:04.086Z,28.23
2019-04-26T07:13:14.771Z,28.66
2019-04-26T07:15:53.710Z,29.12
2019-04-26T07:18:29.706Z,29.10
2019-04-26T07:21:04.538Z,28.95
2019-04-26T07:24:09.833Z,29.43
2019-04-26T07:27:09.020Z,30.55
2019-04-26T07:30:13.414Z,31.41
2019-04-26T07:33:06.269Z,32.14
2019-04-26T07:35:49.696Z,30.64
2019-04-26T07:38:54.611Z,30.24
2019-04-26T07:41:57.509Z,30.95
2019-04-26T07:44:53.288Z,31.12
2019-04-26T07:47:31.708Z,31.45
2019-04-26T07:50:17.976Z,31.15
2019-04-26T07:53:19.968Z,31.91
2019-04-26T07:56:02.325Z,32.59
2019-04-26T07:59:08.791Z,33.01
2019-04-26T08:02:06.663Z,33.05
2019-04-26T08:04:44.292Z,32.63
2019-04-26T08:07:25.423Z,32.74
2019-04-26T08:10:09.917Z,33.17
2019-04-26T08:12:44.693Z,32.78
2019-04-26T08:15:36.073Z,32.21
2019-04-26T08:18:15.246Z,31.98
2019-04-26T08:20:52.189Z,32.42
2019-04-26T08:23:41.126Z,32.55
2019-04-26T08:26:09.120Z,32.95
2019-04-26T08:28:44.817Z,33.37
2019-04-26T08:31:22.698Z,33.41
2019-04-26T08:33:54.946Z,33.50
2019-04-26T08:36:31.069Z,33.44
2019-04-26T08:39:10.929Z,33.73
2019-04-26T08:41:45.017Z,33.89
2019-04-26T08:44:22.854Z,33.37
2019-04-26T08:46:58.377Z,33.51
2019-04-26T08:49:40.198Z,32.93
2019-04-26T08:52:14.827Z,33.02
2019-04-26T08:54:52.047Z,33.04
2019-04-26T08:57:26.740Z,32.79
2019-04-26T09:00:01.612Z,32.34
2019-04-26T09:02:39.601Z,32.42
2019-04-26T09:05:30.268Z,32.70
2019-04-26T09:08:04.349Z,32.79
2019-04-26T09:10:42.957Z,32.81
2019-04-26T09:13:15.994Z,31.97
2019-04-26T09:16:06.940Z,31.93
2019-04-26T09:18:43.881Z,32.04
2019-04-26T09:21:19.277Z,31.86
2019-04-26T09:23:55.833Z,31.66
2019-04-26T09:26:30.613Z,31.54
2019-04-26T09:29:05.438Z,31.00
2019-04-26T09:31:41.038Z,30.90
2019-04-26T09:34:32.657Z,30.95
2019-04-26T09:37:06.352Z,30.86
2019-04-26T09:39:41.690Z,30.97
2019-04-26T09:42:31.153Z,30.86
2019-04-26T09:45:23.882Z,30.57
2019-04-26T09:48:01.830Z,30.50
2019-04-26T09:50:38.219Z,30.08
2019-04-26T09:53:11.380Z,29.77
2019-04-26T09:55:45.992Z,29.64
2019-04-26T09:58:18.159Z,29.64
2019-04-26T10:00:50.361Z,29.58
2019-04-26T10:03:22.197Z,29.65
2019-04-26T10:05:55.828Z,29.69
2019-04-26T10:08:29.443Z,29.50
2019-04-26T10:11:09.627Z,29.49
2019-04-26T10:13:42.819Z,29.63
2019-04-26T10:16:17.198Z,29.58
2019-04-26T10:18:50.694Z,29.50
2019-04-26T10:21:22.345Z,29.60
2019-04-26T10:23:54.097Z,29.41
2019-04-26T10:26:28.228Z,29.40
2019-04-26T10:29:01.432Z,29.18
2019-04-26T10:31:34.705Z,29.06
2019-04-26T10:34:07.824Z,28.80
2019-04-26T10:36:42.168Z,28.93
2019-04-26T10:39:17.454Z,29.06
2019-04-26T10:41:50.796Z,29.04
2019-04-26T10:44:23.732Z,29.04
2019-04-26T10:46:59.861Z,29.08
2019-04-26T10:49:44.615Z,28.78
2019-04-26T10:52:25.989Z,28.40
2019-04-26T10:55:17.857Z,28.35
2019-04-26T10:57:52.445Z,28.24
2019-04-26T11:00:42.688Z,28.42
2019-04-26T11:03:19.124Z,28.44
2019-04-26T11:05:53.814Z,28.49
2019-04-26T11:08:25.500Z,28.70
2019-04-26T11:10:59.817Z,28.51
2019-04-26T11:13:36.419Z,28.44
2019-04-26T11:16:08.967Z,28.47
2019-04-26T11:18:43.021Z,28.47
2019-04-26T11:21:16.337Z,28.35
2019-04-26T11:23:50.045Z,28.14
2019-04-26T11:26:21.889Z,27.89
2019-04-26T11:28:57.247Z,27.80
2019-04-26T11:31:29.901Z,28.03
2019-04-26T11:34:05.575Z,28.11
2019-04-26T11:36:37.697Z,28.33
2019-04-26T11:39:11.720Z,28.37
2019-04-26T11:41:47.468Z,28.33
2019-04-26T11:44:19.272Z,28.10
2019-04-26T11:46:51.096Z,28.02
2019-04-26T11:49:25.871Z,28.15
2019-04-26T11:52:05.220Z,27.71
2019-04-26T11:54:36.901Z,27.51
2019-04-26T11:57:12.010Z,27.29
2019-04-26T11:59:44.483Z,27.44
2019-04-26T12:02:17.251Z,27.51
2019-04-26T12:04:55.094Z,27.56
2019-04-26T12:07:29.066Z,27.40
2019-04-26T12:10:05.956Z,27.44
2019-04-26T12:12:37.433Z,27.52
2019-04-26T12:15:10.255Z,27.66
2019-04-26T12:17:43.250Z,27.70
2019-04-26T12:20:16.567Z,27.79
2019-04-26T12:22:48.314Z,27.85
2019-04-26T12:25:20.112Z,27.86
2019-04-26T12:27:53.618Z,27.91
2019-04-26T12:30:26.891Z,27.97
2019-04-26T12:33:00.406Z,27.92
2019-04-26T12:35:32.281Z,27.89
2019-04-26T12:38:04.097Z,27.93
2019-04-26T12:40:35.761Z,27.79
2019-04-26T12:43:09.173Z,27.76
2019-04-26T12:45:51.535Z,27.78
2019-04-26T12:48:22.441Z,27.81
2019-04-26T12:50:56.619Z,27.63
2019-04-26T12:53:31.257Z,27.53
2019-04-26T12:56:04.173Z,27.34
2019-04-26T12:58:35.843Z,27.26
2019-04-26T13:01:12.301Z,27.07
2019-04-26T13:03:44.128Z,26.87
2019-04-26T13:06:16.158Z,26.80
2019-04-26T13:08:51.513Z,26.64
2019-04-26T13:11:26.798Z,26.59
2019-04-26T13:14:16.241Z,26.57
2019-04-26T13:16:52.407Z,26.55
2019-04-26T13:19:24.993Z,26.53
2019-04-26T13:21:58.890Z,26.47
2019-04-26T13:24:30.530Z,26.28
2019-04-26T13:27:05.868Z,26.14
2019-04-26T13:29:38.243Z,25.92
2019-04-26T13:32:11.414Z,25.88
2019-04-26T13:34:44.266Z,25.89
2019-04-26T13:37:15.986Z,25.87
2019-04-26T13:39:47.565Z,25.88
2019-04-26T13:42:19.291Z,25.87
2019-04-26T13:45:03.345Z,25.83
2019-04-26T13:47:55.234Z,25.86
2019-04-26T13:50:30.585Z,25.86
2019-04-26T13:53:02.406Z,25.81
2019-04-26T13:55:34.329Z,25.71
2019-04-26T13:58:07.128Z,25.64
2019-04-26T14:00:43.525Z,25.49
2019-04-26T14:03:15.850Z,25.38
2019-04-26T14:05:49.689Z,25.24
2019-04-26T14:08:21.598Z,25.14
2019-04-26T14:10:55.106Z,25.02
2019-04-26T14:13:30.977Z,24.87
2019-04-26T14:16:11.131Z,24.68
2019-04-26T14:18:46.567Z,24.62
2019-04-26T14:21:18.303Z,24.62
2019-04-26T14:23:55.783Z,24.54
2019-04-26T14:26:39.870Z,24.58
2019-04-26T14:29:12.006Z,24.60
2019-04-26T14:31:47.300Z,24.58
2019-04-26T14:34:19.627Z,24.62
2019-04-26T14:37:05.574Z,24.62
2019-04-26T14:39:38.274Z,24.64
2019-04-26T14:42:02.532Z,24.55
2019-04-26T14:44:35.429Z,24.37
2019-04-26T14:47:13.790Z,24.38
2019-04-26T14:49:43.098Z,24.28
2019-04-26T14:52:15.037Z,24.25
2019-04-26T14:54:48.771Z,24.18
2019-04-26T14:57:28.435Z,24.12
2019-04-26T14:59:56.975Z,24.10
2019-04-26T15:02:32.919Z,24.04
2019-04-26T15:05:22.936Z,23.98
2019-04-26T15:07:54.602Z,23.94
2019-04-26T15:10:43.883Z,23.87
2019-04-26T15:13:17.953Z,23.77
2019-04-26T15:15:48.577Z,23.67
2019-04-26T15:18:22.559Z,23.58
2019-04-26T15:20:57.041Z,23.48
2019-04-26T15:23:28.114Z,23.37
2019-04-26T15:26:04.775Z,23.22
2019-04-26T15:28:36.318Z,23.13
2019-04-26T15:31:09.569Z,22.99
2019-04-26T15:33:48.642Z,22.92
2019-04-26T15:36:23.113Z,22.86
2019-04-26T15:38:57.016Z,22.79
2019-04-26T15:41:30.799Z,22.80
2019-04-26T15:44:11.430Z,22.61
2019-04-26T15:46:59.715Z,22.48
2019-04-26T15:49:39.545Z,22.45
2019-04-26T15:52:12.115Z,22.31
2019-04-26T15:54:43.982Z,22.22
2019-04-26T15:57:16.168Z,22.05
2019-04-26T15:59:49.482Z,22.00
2019-04-26T16:02:26.195Z,21.87
2019-04-26T16:05:02.224Z,21.77
2019-04-26T16:07:36.648Z,21.67
2019-04-26T16:10:09.518Z,21.52
2019-04-26T16:12:48.003Z,21.36
2019-04-26T16:15:19.723Z,21.29
2019-04-26T16:17:52.538Z,21.10
2019-04-26T16:20:31.712Z,20.93
2019-04-26T16:23:07.048Z,20.79
2019-04-26T16:25:38.337Z,20.67
2019-04-26T16:28:30.851Z,20.62
2019-04-26T16:31:22.618Z,20.32
2019-04-26T16:34:10.824Z,20.03
2019-04-26T16:36:45.273Z,19.75
2019-04-26T16:39:16.417Z,19.58
2019-04-26T16:41:51.913Z,19.44
2019-04-26T16:44:29.897Z,19.27
2019-04-26T16:47:03.674Z,19.09
2019-04-26T16:49:41.301Z,18.96
2019-04-26T16:52:09.928Z,18.80
2019-04-26T16:54:42.346Z,18.64
2019-04-26T16:57:15.586Z,18.45
2019-04-26T16:59:56.967Z,18.31
2019-04-26T17:02:26.394Z,18.26
2019-04-26T17:05:03.633Z,18.22
2019-04-26T17:07:39.336Z,18.20
2019-04-26T17:10:12.172Z,18.18
2019-04-26T17:12:46.271Z,18.04
2019-04-26T17:15:21.134Z,17.90
2019-04-26T17:17:53.814Z,17.86
2019-04-26T17:20:28.256Z,17.77
2019-04-26T17:23:12.467Z,17.68
2019-04-26T17:26:04.103Z,17.53
2019-04-26T17:28:39.781Z,17.46
2019-04-26T17:31:13.326Z,17.43
2019-04-26T17:33:50.659Z,17.25
2019-04-26T17:36:24.761Z,17.09
2019-04-26T17:38:57.834Z,17.03
2019-04-26T17:41:31.020Z,16.93
2019-04-26T17:44:10.698Z,16.87
2019-04-26T17:46:40.067Z,16.87
2019-04-26T17:49:12.139Z,16.86
2019-04-26T17:51:45.157Z,16.82
2019-04-26T17:54:40.944Z,16.79
2019-04-26T17:56:53.552Z,16.76
2019-04-26T17:59:33.723Z,16.74
2019-04-26T18:02:01.394Z,16.72
2019-04-26T18:04:37.425Z,16.68
2019-04-26T18:07:37.690Z,16.65
2019-04-26T18:09:50.675Z,16.64
2019-04-26T18:12:22.738Z,16.58
2019-04-26T18:14:54.663Z,16.44
2019-04-26T18:17:28.441Z,16.36
2019-04-26T18:20:10.079Z,16.25
2019-04-26T18:22:54.226Z,16.12
2019-04-26T18:25:27.810Z,16.06
2019-04-26T18:27:59.455Z,16.01
2019-04-26T18:30:33.296Z,15.98
2019-04-26T18:33:08.239Z,15.85
2019-04-26T18:35:43.497Z,15.74
2019-04-26T18:38:14.663Z,15.63
2019-04-26T18:41:00.116Z,15.52
2019-04-26T18:43:24.893Z,15.46
2019-04-26T18:46:03.404Z,15.36
2019-04-26T18:48:40.746Z,15.28
2019-04-26T18:51:12.208Z,15.19
2019-04-26T18:53:53.118Z,15.14
2019-04-26T18:56:25.084Z,15.10
2019-04-26T18:59:00.309Z,15.07
2019-04-26T19:01:38.009Z,15.13
2019-04-26T19:04:12.542Z,15.02
2019-04-26T19:06:42.314Z,14.91
2019-04-26T19:09:17.682Z,14.83
2019-04-26T19:11:53.577Z,14.75
2019-04-26T19:14:48.560Z,14.72
2019-04-26T19:17:19.959Z,14.71
2019-04-26T19:20:11.457Z,14.64
2019-04-26T19:22:46.528Z,14.66
2019-04-26T19:25:23.111Z,14.68
2019-04-26T19:27:54.063Z,14.74
2019-04-26T19:30:26.471Z,14.76
2019-04-26T19:33:02.069Z,14.79
2019-04-26T19:35:39.427Z,14.77
2019-04-26T19:38:11.950Z,14.72
2019-04-26T19:40:48.062Z,14.72
2019-04-26T19:43:30.302Z,14.65
2019-04-26T19:46:02.936Z,14.48
2019-04-26T19:48:36.145Z,14.36
2019-04-26T19:51:27.139Z,14.22
2019-04-26T19:54:17.342Z,14.11
2019-04-26T19:57:01.134Z,14.03
2019-04-26T19:59:34.705Z,13.89
2019-04-26T20:02:09.592Z,13.90
2019-04-26T20:04:41.958Z,13.98
2019-04-26T20:07:14.023Z,13.95
2019-04-26T20:09:47.001Z,13.83
2019-04-26T20:12:23.361Z,13.76
2019-04-26T20:14:58.258Z,13.77
2019-04-26T20:17:28.853Z,13.73
2019-04-26T20:20:02.051Z,13.73
2019-04-26T20:22:35.417Z,13.48
2019-04-26T20:25:09.285Z,13.41
2019-04-26T20:27:42.460Z,13.31
2019-04-26T20:30:18.157Z,13.20
2019-04-26T20:32:52.378Z,13.12
2019-04-26T20:35:29.232Z,13.05
2019-04-26T20:38:04.712Z,13.01
2019-04-26T20:40:37.486Z,12.95
2019-04-26T20:43:22.967Z,12.90
2019-04-26T20:46:07.705Z,12.85
2019-04-26T20:48:18.927Z,12.84
2019-04-26T20:50:52.041Z,12.81
2019-04-26T20:53:26.386Z,12.75
2019-04-26T20:55:59.372Z,12.73
2019-04-26T20:58:37.498Z,12.70
2019-04-26T21:01:14.054Z,12.63
2019-04-26T21:03:59.233Z,12.58
2019-04-26T21:06:37.018Z,12.57
2019-04-26T21:09:12.005Z,12.55
2019-04-26T21:11:44.478Z,12.55
2019-04-26T21:14:16.639Z,12.51
2019-04-26T21:16:50.597Z,12.51
2019-04-26T21:19:28.355Z,12.60
2019-04-26T21:22:04.347Z,12.58
2019-04-26T21:24:38.324Z,12.51
2019-04-26T21:27:25.984Z,12.37
2019-04-26T21:30:13.497Z,12.25
2019-04-26T21:32:59.169Z,12.16
2019-04-26T21:35:34.921Z,12.03
2019-04-26T21:38:08.193Z,12.26
2019-04-26T21:40:43.844Z,12.04
2019-04-26T21:43:16.694Z,11.85
2019-04-26T21:45:48.449Z,11.74
2019-04-26T21:48:23.519Z,11.70
2019-04-26T21:50:55.103Z,11.64
2019-04-26T21:53:29.863Z,11.62
2019-04-26T21:56:03.038Z,11.58
2019-04-26T21:58:36.493Z,11.55
2019-04-26T22:01:11.015Z,11.49
2019-04-26T22:03:47.426Z,11.43
2019-04-26T22:06:19.800Z,11.45
2019-04-26T22:08:59.332Z,11.46
2019-04-26T22:11:32.610Z,11.42
2019-04-26T22:14:06.482Z,11.37
2019-04-26T22:16:57.536Z,11.34
2019-04-26T22:19:32.512Z,11.30
2019-04-26T22:22:18.717Z,11.29
2019-04-26T22:24:55.498Z,11.35
2019-04-26T22:27:27.452Z,11.31
2019-04-26T22:29:59.695Z,11.28
2019-04-26T22:32:33.288Z,11.22
2019-04-26T22:35:05.471Z,11.17
2019-04-26T22:37:37.438Z,11.13
2019-04-26T22:40:10.492Z,11.06
2019-04-26T22:42:45.637Z,11.02
2019-04-26T22:45:23.393Z,10.96
2019-04-26T22:48:06.913Z,10.91
2019-04-26T22:50:38.580Z,10.84
2019-04-26T22:53:11.916Z,10.77
2019-04-26T22:55:44.496Z,10.71
2019-04-26T22:58:20.619Z,10.62
2019-04-26T23:00:50.132Z,10.61
2019-04-26T23:03:23.980Z,10.50
2019-04-26T23:05:55.579Z,10.45
2019-04-26T23:08:30.832Z,10.38
2019-04-26T23:11:02.484Z,10.23
2019-04-26T23:13:41.337Z,10.23
2019-04-26T23:16:25.529Z,10.21
2019-04-26T23:19:15.347Z,10.29
2019-04-26T23:21:55.859Z,10.29
2019-04-26T23:24:26.116Z,10.18
2019-04-26T23:26:57.799Z,10.19
2019-04-26T23:29:29.564Z,10.22
2019-04-26T23:32:01.266Z,10.16
2019-04-26T23:34:33.766Z,10.06
2019-04-26T23:37:06.137Z,9.97
2019-04-26T23:39:42.944Z,9.90
2019-04-26T23:42:16.487Z,9.79
2019-04-26T23:44:46.406Z,9.64
2019-04-26T23:47:22.994Z,9.58
2019-04-26T23:49:53.874Z,9.83
2019-04-26T23:52:25.634Z,9.83
2019-04-26T23:54:57.326Z,9.91
2019-04-26T23:57:31.369Z,9.87
